Time;durP1;ratioP1;P1;durP2;ratioP2;P2;SDS_P1;SDS_P2;PMS_P1;PMS_P2;Temp;Humidity;BMP_temperature;BMP_pressure;BME280_temperature;BME280_humidity;BME280_pressure;Samples;Min_cycle;Max_cycle;Signal;HPM_P1;HPM_P2
2024/03/18 00:02:11;;;;;;;14.73;7.10;;;12.60;94.70;;;;;;5057690;28;20036;-69
2024/03/18 00:04:37;;;;;;;13.43;6.43;;;12.60;94.70;;;;;;5055518;28;20086;-70
2024/03/18 00:07:03;;;;;;;19.80;8.20;;;12.60;94.70;;;;;;5055882;28;20082;-70
2024/03/18 00:09:28;;;;;;;11.23;7.32;;;12.60;94.90;;;;;;5057052;28;20566;-69
2024/03/18 00:11:54;;;;;;;16.67;7.70;;;12.60;94.90;;;;;;5057154;28;20040;-70
2024/03/18 00:14:20;;;;;;;12.45;6.95;;;12.60;94.80;;;;;;5057523;28;20032;-70
2024/03/18 00:16:45;;;;;;;18.90;8.00;;;12.60;94.70;;;;;;5055572;28;20040;-70
2024/03/18 00:19:11;;;;;;;13.52;8.40;;;12.60;94.80;;;;;;5055992;28;20387;-70
2024/03/18 00:21:38;;;;;;;15.27;7.78;;;12.70;94.70;;;;;;5052596;28;20044;-70
2024/03/18 00:24:04;;;;;;;20.27;8.00;;;12.70;94.80;;;;;;5057079;28;21357;-70
2024/03/18 00:26:30;;;;;;;14.18;7.70;;;12.70;94.80;;;;;;5055794;28;20169;-70
2024/03/18 00:28:55;;;;;;;15.20;8.20;;;12.70;94.70;;;;;;5054921;28;20078;-69
2024/03/18 00:31:21;;;;;;;17.63;8.57;;;12.70;94.70;;;;;;5055282;28;20037;-70
2024/03/18 00:33:47;;;;;;;15.02;7.78;;;12.70;94.90;;;;;;5055662;28;20052;-70
2024/03/18 00:36:13;;;;;;;23.80;8.85;;;12.60;94.80;;;;;;5055100;28;20058;-70
2024/03/18 00:38:38;;;;;;;16.15;8.80;;;12.60;94.70;;;;;;5056257;28;20074;-70
2024/03/18 00:43:48;;;;;;;16.27;8.10;;;12.60;94.80;;;;;;5054593;28;20047;-69
2024/03/18 00:46:14;;;;;;;15.52;7.38;;;12.60;94.90;;;;;;5055351;28;21098;-69
2024/03/18 00:48:39;;;;;;;17.58;8.80;;;12.60;94.90;;;;;;5055797;28;20029;-69
2024/03/18 00:51:05;;;;;;;15.45;7.75;;;12.60;94.90;;;;;;5053983;28;20032;-70
2024/03/18 00:53:32;;;;;;;15.13;8.55;;;12.60;94.90;;;;;;5057918;28;20035;-69
2024/03/18 00:55:57;;;;;;;14.93;7.03;;;12.60;95.00;;;;;;5053332;28;20076;-70
2024/03/18 00:58:23;;;;;;;13.88;7.65;;;12.60;95.00;;;;;;5056941;28;20194;-69
2024/03/18 01:00:49;;;;;;;15.68;8.55;;;12.60;95.00;;;;;;5053955;28;20047;-70
2024/03/18 01:03:15;;;;;;;16.27;8.73;;;12.60;94.90;;;;;;5053826;28;20028;-69
2024/03/18 01:05:41;;;;;;;19.02;8.50;;;12.60;95.10;;;;;;5053938;28;20486;-70
2024/03/18 01:08:09;;;;;;;15.55;7.80;;;12.60;94.90;;;;;;5040883;28;20599;-69
2024/03/18 01:10:35;;;;;;;17.75;8.07;;;12.60;94.90;;;;;;5053937;28;20043;-69
2024/03/18 01:13:00;;;;;;;19.23;9.32;;;12.60;94.90;;;;;;5056249;28;21659;-69
2024/03/18 01:15:26;;;;;;;13.68;7.70;;;12.60;95.10;;;;;;5055937;28;20119;-69
2024/03/18 01:17:52;;;;;;;14.27;8.20;;;12.50;95.00;;;;;;5054753;28;20027;-69
2024/03/18 01:20:19;;;;;;;20.23;8.80;;;12.50;95.00;;;;;;5055819;28;20525;-70
2024/03/18 01:22:45;;;;;;;14.23;8.07;;;12.60;95.00;;;;;;5055635;28;20068;-69
2024/03/18 01:25:13;;;;;;;13.85;7.97;;;12.60;95.00;;;;;;5054406;28;20293;-69
2024/03/18 01:27:45;;;;;;;15.57;7.97;;;12.60;94.90;;;;;;5052168;28;20044;-69
2024/03/18 01:30:12;;;;;;;20.15;8.80;;;12.60;94.90;;;;;;5061403;28;20562;-69
2024/03/18 01:32:38;;;;;;;17.13;8.52;;;12.70;94.80;;;;;;5046686;28;20029;-69
2024/03/18 01:35:05;;;;;;;14.57;7.32;;;12.60;94.80;;;;;;5056297;28;20040;-69
2024/03/18 01:37:31;;;;;;;18.27;8.48;;;12.60;94.80;;;;;;5049525;28;20072;-69
2024/03/18 01:39:56;;;;;;;16.95;7.93;;;12.60;94.90;;;;;;5049369;28;20080;-69
2024/03/18 01:42:22;;;;;;;15.02;8.18;;;12.50;94.90;;;;;;5060478;28;20033;-69
2024/03/18 01:44:53;;;;;;;16.92;8.40;;;12.60;94.90;;;;;;5051637;28;20033;-69
2024/03/18 01:47:19;;;;;;;16.95;9.23;;;12.60;94.90;;;;;;5060838;28;20029;-69
2024/03/18 01:49:44;;;;;;;12.88;7.85;;;12.70;95.00;;;;;;5048122;28;20055;-69
2024/03/18 01:52:11;;;;;;;18.92;8.60;;;12.60;94.80;;;;;;5049378;28;20383;-69
2024/03/18 01:54:36;;;;;;;17.45;9.30;;;12.60;94.90;;;;;;5063696;28;20399;-69
2024/03/18 01:57:03;;;;;;;19.60;9.80;;;12.50;95.00;;;;;;5063308;28;20123;-69
2024/03/18 01:59:29;;;;;;;18.45;9.95;;;12.50;95.00;;;;;;5053705;28;20121;-69
2024/03/18 02:01:54;;;;;;;14.80;8.55;;;12.50;95.00;;;;;;5058576;28;20119;-69
2024/03/18 02:04:20;;;;;;;21.10;9.48;;;12.50;95.00;;;;;;5055671;28;20074;-69
2024/03/18 02:06:46;;;;;;;21.05;10.00;;;12.50;95.10;;;;;;5059120;28;20033;-69
2024/03/18 02:09:12;;;;;;;13.82;8.70;;;12.50;95.10;;;;;;5057626;28;20044;-69
2024/03/18 02:11:37;;;;;;;18.38;9.85;;;12.50;95.00;;;;;;5047250;28;20037;-69
2024/03/18 02:14:12;;;;;;;22.02;9.85;;;12.50;95.20;;;;;;5050103;28;20087;-69
2024/03/18 02:16:38;;;;;;;15.55;8.13;;;12.50;95.10;;;;;;5061305;28;20047;-70
2024/03/18 02:19:04;;;;;;;18.50;9.30;;;12.50;95.10;;;;;;5059157;28;20516;-69
2024/03/18 02:21:29;;;;;;;17.50;9.73;;;12.40;95.10;;;;;;5053478;28;20500;-69
2024/03/18 02:23:55;;;;;;;21.35;10.15;;;12.40;95.10;;;;;;5061775;28;20135;-69
2024/03/18 02:26:21;;;;;;;21.33;9.75;;;12.40;95.20;;;;;;5048604;28;20024;-69
2024/03/18 02:28:46;;;;;;;23.30;10.77;;;12.40;95.30;;;;;;5047609;28;20166;-70
2024/03/18 02:31:12;;;;;;;15.40;8.90;;;12.40;95.20;;;;;;5045931;28;20048;-69
2024/03/18 02:33:38;;;;;;;18.15;10.07;;;12.40;95.20;;;;;;5048101;28;20444;-69
2024/03/18 02:36:04;;;;;;;16.45;9.75;;;12.40;95.30;;;;;;5054015;28;20028;-69
2024/03/18 02:38:30;;;;;;;23.38;10.43;;;12.40;95.30;;;;;;5051181;28;20472;-69
2024/03/18 02:40:56;;;;;;;18.80;10.15;;;12.40;95.30;;;;;;5051037;28;20075;-69
2024/03/18 02:43:22;;;;;;;19.88;10.00;;;12.40;95.40;;;;;;5062857;28;20033;-69
2024/03/18 02:45:47;;;;;;;16.98;9.93;;;12.40;95.30;;;;;;5055414;28;20054;-69
2024/03/18 02:48:13;;;;;;;17.50;9.45;;;12.40;95.30;;;;;;5051412;28;20025;-69
2024/03/18 02:50:41;;;;;;;17.63;10.23;;;12.30;95.20;;;;;;5056030;28;20036;-69
2024/03/18 02:53:07;;;;;;;19.17;11.07;;;12.40;95.50;;;;;;5053916;28;20029;-70
2024/03/18 02:55:32;;;;;;;22.27;9.02;;;12.30;95.50;;;;;;5051470;28;20056;-70
2024/03/18 02:57:58;;;;;;;20.83;10.30;;;12.30;95.30;;;;;;5057775;28;20029;-69
2024/03/18 03:00:24;;;;;;;18.73;10.10;;;12.40;95.40;;;;;;5070389;28;20040;-70
2024/03/18 03:02:49;;;;;;;23.00;10.38;;;12.30;95.40;;;;;;5061546;28;20029;-69
2024/03/18 03:05:15;;;;;;;17.27;9.23;;;12.40;95.50;;;;;;5065917;28;20035;-70
2024/03/18 03:07:41;;;;;;;19.05;9.60;;;12.30;95.40;;;;;;5051369;28;20086;-69
2024/03/18 03:10:07;;;;;;;21.67;10.90;;;12.40;95.40;;;;;;5062865;28;20033;-70
2024/03/18 03:12:33;;;;;;;20.10;10.57;;;12.30;95.50;;;;;;5061078;28;20047;-69
2024/03/18 03:14:59;;;;;;;21.40;10.07;;;12.30;95.40;;;;;;5068528;28;20033;-69
2024/03/18 03:17:24;;;;;;;25.17;10.60;;;12.30;95.50;;;;;;5070508;28;20086;-69
2024/03/18 03:19:53;;;;;;;25.15;10.35;;;12.30;95.40;;;;;;5070898;28;20040;-69
2024/03/18 03:22:19;;;;;;;22.35;10.95;;;12.30;95.40;;;;;;5070929;28;20082;-69
2024/03/18 03:24:47;;;;;;;15.43;7.72;;;12.40;95.70;;;;;;5050542;28;20068;-70
2024/03/18 03:27:13;;;;;;;23.00;10.63;;;12.40;95.40;;;;;;5049901;28;20052;-70
2024/03/18 03:29:39;;;;;;;18.10;9.55;;;12.30;95.30;;;;;;5059521;28;20622;-70
2024/03/18 03:32:05;;;;;;;18.85;10.30;;;12.40;95.40;;;;;;5055838;28;20040;-70
2024/03/18 03:34:31;;;;;;;21.77;10.07;;;12.30;95.40;;;;;;5056645;28;20028;-69
2024/03/18 03:36:56;;;;;;;21.30;10.55;;;12.30;95.50;;;;;;5060286;28;20115;-69
2024/03/18 03:39:24;;;;;;;19.17;10.77;;;12.30;95.50;;;;;;5056881;28;20028;-69
2024/03/18 03:41:50;;;;;;;19.23;9.82;;;12.30;95.50;;;;;;5070460;28;20402;-69
2024/03/18 03:44:15;;;;;;;23.48;9.73;;;12.30;95.50;;;;;;5066699;28;20095;-70
2024/03/18 03:46:41;;;;;;;19.60;11.10;;;12.30;95.50;;;;;;5062135;28;20029;-70
2024/03/18 03:49:07;;;;;;;20.00;11.23;;;12.30;95.60;;;;;;5048122;28;20036;-70
2024/03/18 03:51:33;;;;;;;20.85;10.38;;;12.30;95.60;;;;;;5051651;28;20143;-69
2024/03/18 03:53:59;;;;;;;19.38;10.32;;;12.30;95.60;;;;;;5065122;28;20063;-70
2024/03/18 03:56:25;;;;;;;22.25;11.02;;;12.30;95.50;;;;;;5063535;28;20435;-69
2024/03/18 03:58:52;;;;;;;23.88;11.50;;;12.30;95.70;;;;;;5050129;28;20115;-69
2024/03/18 04:01:19;;;;;;;23.35;10.70;;;12.30;95.60;;;;;;5054007;28;20162;-69
2024/03/18 04:03:45;;;;;;;16.52;10.43;;;12.30;95.50;;;;;;5051881;28;20037;-69
2024/03/18 04:06:11;;;;;;;16.23;9.93;;;12.30;95.60;;;;;;5054301;28;20035;-69
2024/03/18 04:08:37;;;;;;;19.15;10.13;;;12.20;95.50;;;;;;5067921;28;20102;-69
2024/03/18 04:11:02;;;;;;;15.32;9.38;;;12.30;95.50;;;;;;5056167;28;20428;-69
2024/03/18 04:13:31;;;;;;;20.67;10.80;;;12.20;95.50;;;;;;5049450;28;20115;-70
2024/03/18 04:15:57;;;;;;;20.50;10.50;;;12.30;95.60;;;;;;5069435;28;20035;-70
2024/03/18 04:18:23;;;;;;;21.30;10.75;;;12.20;95.60;;;;;;5055718;28;20033;-70
2024/03/18 04:20:48;;;;;;;21.02;11.45;;;12.20;95.60;;;;;;5055196;28;20040;-70
2024/03/18 04:23:15;;;;;;;26.05;11.25;;;12.20;95.70;;;;;;5064132;28;20380;-69
2024/03/18 04:25:41;;;;;;;20.67;10.18;;;12.20;95.60;;;;;;5064224;28;20037;-69
2024/03/18 04:28:07;;;;;;;18.60;10.02;;;12.20;95.60;;;;;;5055873;28;20062;-70
2024/03/18 04:30:34;;;;;;;21.35;11.23;;;12.20;95.70;;;;;;5061121;28;20033;-69
2024/03/18 04:33:00;;;;;;;18.40;10.82;;;12.20;95.70;;;;;;5058041;28;20399;-70
2024/03/18 04:35:25;;;;;;;27.90;10.98;;;12.20;95.70;;;;;;5062699;28;20036;-69
2024/03/18 04:37:51;;;;;;;16.98;10.77;;;12.20;95.70;;;;;;5054890;28;20033;-70
2024/03/18 04:40:21;;;;;;;24.45;10.35;;;12.20;95.70;;;;;;5057498;28;20033;-69
2024/03/18 04:42:47;;;;;;;22.52;11.23;;;12.20;95.70;;;;;;5056780;28;20041;-70
2024/03/18 04:45:15;;;;;;;17.67;10.55;;;12.10;95.70;;;;;;5057871;28;20017;-69
2024/03/18 04:47:52;;;;;;;21.00;11.80;;;12.20;95.80;;;;;;5052257;28;20045;-69
2024/03/18 04:50:26;;;;;;;26.10;11.38;;;12.20;95.80;;;;;;5050855;28;20112;-69
2024/03/18 04:52:54;;;;;;;19.13;9.98;;;12.20;95.70;;;;;;5068251;28;20063;-69
2024/03/18 04:55:21;;;;;;;24.05;12.25;;;12.20;95.80;;;;;;5068529;28;20044;-69
2024/03/18 04:57:55;;;;;;;25.45;11.02;;;12.20;95.90;;;;;;5049405;28;20111;-69
2024/03/18 05:00:22;;;;;;;18.25;10.23;;;12.20;95.80;;;;;;5056279;28;20052;-69
2024/03/18 05:02:48;;;;;;;19.02;11.70;;;12.20;95.70;;;;;;5052473;28;20029;-70
2024/03/18 05:05:14;;;;;;;24.30;11.93;;;12.20;95.80;;;;;;5058326;28;20029;-70
2024/03/18 05:07:40;;;;;;;24.00;11.13;;;12.20;95.70;;;;;;5049229;28;20037;-69
2024/03/18 05:10:07;;;;;;;21.67;10.80;;;12.20;95.70;;;;;;5060817;28;20081;-69
2024/03/18 05:12:33;;;;;;;23.20;10.90;;;12.20;95.70;;;;;;5052167;28;20032;-70
2024/03/18 05:14:59;;;;;;;17.70;10.48;;;12.20;95.70;;;;;;5069340;28;20485;-70
2024/03/18 05:17:25;;;;;;;22.65;9.50;;;12.20;95.90;;;;;;5068503;28;20028;-70
2024/03/18 05:19:52;;;;;;;25.42;11.13;;;12.10;95.80;;;;;;5055579;28;20119;-69
2024/03/18 05:22:18;;;;;;;26.48;12.18;;;12.20;95.90;;;;;;5051415;28;20127;-69
2024/03/18 05:24:44;;;;;;;23.80;12.10;;;12.20;95.90;;;;;;5065657;28;20052;-70
2024/03/18 05:27:11;;;;;;;17.40;10.77;;;12.20;95.90;;;;;;5060626;28;20448;-69
2024/03/18 05:29:37;;;;;;;22.33;11.55;;;12.20;95.90;;;;;;5062046;28;20036;-70
2024/03/18 05:32:09;;;;;;;21.10;11.02;;;12.20;96.00;;;;;;5048885;28;20578;-69
2024/03/18 05:34:39;;;;;;;21.50;9.80;;;12.20;95.90;;;;;;5048854;28;20372;-70
2024/03/18 05:37:06;;;;;;;25.60;11.80;;;12.20;95.90;;;;;;5058594;28;20036;-69
2024/03/18 05:39:33;;;;;;;24.33;11.13;;;12.20;96.00;;;;;;5050918;28;20032;-69
2024/03/18 05:41:59;;;;;;;24.85;11.60;;;12.20;95.90;;;;;;5060414;28;20124;-69
2024/03/18 05:44:25;;;;;;;20.25;11.30;;;12.20;95.90;;;;;;5067525;28;20029;-71
2024/03/18 05:46:51;;;;;;;20.33;11.32;;;12.20;95.90;;;;;;5057007;28;20040;-70
2024/03/18 05:49:17;;;;;;;24.98;11.75;;;12.20;95.90;;;;;;5060876;28;20028;-70
2024/03/18 05:51:44;;;;;;;25.05;11.73;;;12.20;96.00;;;;;;5055663;28;20392;-71
2024/03/18 05:54:10;;;;;;;33.97;12.13;;;12.20;96.00;;;;;;5049241;28;20039;-70
2024/03/18 05:56:36;;;;;;;20.90;10.50;;;12.20;96.00;;;;;;5046851;28;20045;-70
2024/03/18 05:59:02;;;;;;;24.38;12.77;;;12.20;95.90;;;;;;5051913;28;20033;-71
2024/03/18 06:01:29;;;;;;;19.80;12.23;;;12.20;96.00;;;;;;5061242;28;20048;-71
2024/03/18 06:03:54;;;;;;;25.00;12.20;;;12.30;96.10;;;;;;5046482;28;20543;-70
2024/03/18 06:06:20;;;;;;;25.95;12.52;;;12.20;95.90;;;;;;5054667;28;20170;-71
2024/03/18 06:08:46;;;;;;;25.30;11.70;;;12.20;96.00;;;;;;5055696;28;20025;-70
2024/03/18 06:11:12;;;;;;;31.63;12.30;;;12.20;96.00;;;;;;5060237;28;20043;-70
2024/03/18 06:13:37;;;;;;;25.17;13.20;;;12.20;96.00;;;;;;5048888;28;20388;-71
2024/03/18 06:16:04;;;;;;;23.90;12.60;;;12.20;96.00;;;;;;5054893;28;20102;-72
2024/03/18 06:18:29;;;;;;;28.60;13.25;;;12.10;96.00;;;;;;5054815;28;20039;-71
2024/03/18 06:20:56;;;;;;;32.33;12.23;;;12.20;96.00;;;;;;5047643;28;20037;-71
2024/03/18 06:23:25;;;;;;;19.50;11.40;;;12.20;96.10;;;;;;5057605;28;20036;-71
2024/03/18 06:25:57;;;;;;;31.95;12.93;;;12.20;96.10;;;;;;5050538;28;20388;-71
2024/03/18 06:28:30;;;;;;;28.52;13.27;;;12.10;96.10;;;;;;5057838;28;20369;-70
2024/03/18 06:30:59;;;;;;;33.80;13.38;;;12.10;96.20;;;;;;5057823;28;20028;-70
2024/03/18 06:33:26;;;;;;;24.92;13.40;;;12.20;96.20;;;;;;5049273;28;20447;-70
2024/03/18 06:35:56;;;;;;;25.08;13.20;;;12.20;96.10;;;;;;5047721;28;20037;-71
2024/03/18 06:38:22;;;;;;;34.67;12.90;;;12.20;96.10;;;;;;5049557;28;20087;-75
2024/03/18 06:40:48;;;;;;;23.77;11.98;;;12.20;96.10;;;;;;5054871;28;20036;-70
2024/03/18 06:43:15;;;;;;;33.78;12.80;;;12.30;96.10;;;;;;5062947;28;20021;-71
2024/03/18 06:45:41;;;;;;;26.13;13.40;;;12.30;96.00;;;;;;5061280;28;20432;-71
2024/03/18 06:48:07;;;;;;;36.78;14.85;;;12.20;96.10;;;;;;5055517;28;20140;-70
2024/03/18 06:50:37;;;;;;;29.38;13.88;;;12.20;96.10;;;;;;5063585;28;20032;-71
2024/03/18 06:53:04;;;;;;;25.30;12.98;;;12.20;96.10;;;;;;5057145;28;20033;-71
2024/03/18 06:55:30;;;;;;;28.27;13.38;;;12.20;96.10;;;;;;5053786;28;20033;-70
2024/03/18 06:57:56;;;;;;;30.27;13.43;;;12.20;96.10;;;;;;5049521;28;20507;-71
2024/03/18 07:00:23;;;;;;;23.85;13.82;;;12.20;96.10;;;;;;5058886;28;20036;-71
2024/03/18 07:02:50;;;;;;;28.65;12.73;;;12.30;96.10;;;;;;5045561;28;20036;-71
2024/03/18 07:05:20;;;;;;;27.05;13.40;;;12.20;96.00;;;;;;5058028;28;20441;-71
2024/03/18 07:07:46;;;;;;;30.38;12.70;;;12.20;96.10;;;;;;5060521;28;20472;-71
2024/03/18 07:10:12;;;;;;;30.80;14.35;;;12.20;96.10;;;;;;5060133;28;20087;-70
2024/03/18 07:12:38;;;;;;;28.85;12.90;;;12.20;96.20;;;;;;5059319;28;20032;-74
2024/03/18 07:15:06;;;;;;;28.50;12.75;;;12.20;96.20;;;;;;5057564;28;20039;-71
2024/03/18 07:17:33;;;;;;;31.65;13.15;;;12.20;96.20;;;;;;5055076;28;20036;-71
2024/03/18 07:19:59;;;;;;;36.80;14.20;;;12.20;96.10;;;;;;5065568;28;20032;-71
2024/03/18 07:22:25;;;;;;;32.90;13.35;;;12.20;96.20;;;;;;5048913;28;20052;-71
2024/03/18 07:24:51;;;;;;;33.08;14.93;;;12.30;96.20;;;;;;5059214;28;20036;-71
2024/03/18 07:27:17;;;;;;;26.27;12.32;;;12.30;96.20;;;;;;5060196;28;20061;-70
2024/03/18 07:29:43;;;;;;;35.72;14.50;;;12.30;96.20;;;;;;5058368;28;20059;-72
2024/03/18 07:32:09;;;;;;;34.60;14.35;;;12.30;96.30;;;;;;5054840;28;20036;-71
2024/03/18 07:34:36;;;;;;;35.85;14.48;;;12.20;96.30;;;;;;5064337;28;20108;-72
2024/03/18 07:37:02;;;;;;;32.55;13.63;;;12.20;96.30;;;;;;5053056;28;20040;-73
2024/03/18 07:39:28;;;;;;;29.67;13.27;;;12.30;96.40;;;;;;5068071;28;20036;-72
2024/03/18 07:41:55;;;;;;;28.65;13.40;;;12.20;96.40;;;;;;5059600;28;20047;-72
2024/03/18 07:44:22;;;;;;;34.13;14.23;;;12.20;96.40;;;;;;5051476;28;20040;-71
2024/03/18 07:46:47;;;;;;;28.48;13.85;;;12.30;96.40;;;;;;5053993;28;20382;-71
2024/03/18 07:49:14;;;;;;;25.55;13.50;;;12.30;96.40;;;;;;5054052;28;20108;-71
2024/03/18 07:51:40;;;;;;;25.95;13.40;;;12.20;96.40;;;;;;5048760;28;20025;-71
2024/03/18 07:54:05;;;;;;;24.48;12.52;;;12.20;96.50;;;;;;5064121;28;20462;-71
2024/03/18 07:56:31;;;;;;;18.85;11.63;;;12.30;96.50;;;;;;5059291;28;20487;-71
2024/03/18 07:58:58;;;;;;;30.02;13.30;;;12.30;96.50;;;;;;5063084;28;20092;-71
2024/03/18 08:01:25;;;;;;;27.13;13.35;;;12.30;96.50;;;;;;5057764;28;20044;-71
2024/03/18 08:03:53;;;;;;;31.27;13.43;;;12.30;96.40;;;;;;5069658;28;20036;-71
2024/03/18 08:06:19;;;;;;;29.65;12.30;;;12.30;96.50;;;;;;5059341;28;20036;-71
2024/03/18 08:08:45;;;;;;;27.10;13.82;;;12.30;96.50;;;;;;5056707;28;20047;-72
2024/03/18 08:11:10;;;;;;;27.08;12.68;;;12.30;96.50;;;;;;5062595;28;20033;-71
2024/03/18 08:13:36;;;;;;;28.20;14.10;;;12.30;96.60;;;;;;5051126;28;20095;-71
2024/03/18 08:16:02;;;;;;;33.47;13.45;;;12.30;96.60;;;;;;5063328;28;20036;-71
2024/03/18 08:18:28;;;;;;;25.10;12.45;;;12.30;96.60;;;;;;5062282;28;20050;-71
2024/03/18 08:20:54;;;;;;;21.42;9.07;;;12.40;96.60;;;;;;5066597;28;20037;-71
2024/03/18 08:23:20;;;;;;;27.95;13.43;;;12.40;96.60;;;;;;5059355;28;20033;-72
2024/03/18 08:25:45;;;;;;;24.00;12.02;;;12.50;96.50;;;;;;5049872;28;20043;-71
2024/03/18 08:28:11;;;;;;;29.83;13.30;;;12.40;96.40;;;;;;5054034;28;20063;-71
2024/03/18 08:30:37;;;;;;;34.50;13.30;;;12.50;96.50;;;;;;5056172;28;20035;-72
2024/03/18 08:33:05;;;;;;;25.27;12.60;;;12.40;96.50;;;;;;5070022;28;20032;-72
2024/03/18 08:35:31;;;;;;;28.65;14.55;;;12.40;96.60;;;;;;5060728;28;20033;-71
2024/03/18 08:37:57;;;;;;;33.78;13.70;;;12.40;96.60;;;;;;5064480;28;20024;-72
2024/03/18 08:40:23;;;;;;;30.63;13.75;;;12.40;97.00;;;;;;5059862;28;20025;-72
2024/03/18 08:42:49;;;;;;;24.55;13.48;;;12.50;96.70;;;;;;5048618;28;20029;-74
2024/03/18 08:45:16;;;;;;;30.50;13.63;;;12.50;96.70;;;;;;5051558;28;20151;-71
2024/03/18 08:47:41;;;;;;;36.70;15.32;;;12.50;96.70;;;;;;5049757;28;20033;-71
2024/03/18 08:50:07;;;;;;;25.38;13.30;;;12.50;96.70;;;;;;5065192;28;20044;-72
2024/03/18 08:52:36;;;;;;;24.70;11.23;;;12.50;96.70;;;;;;5050930;28;20078;-72
2024/03/18 08:55:05;;;;;;;30.95;13.93;;;12.60;96.60;;;;;;5069079;28;20029;-72
2024/03/18 08:57:31;;;;;;;29.10;13.82;;;12.60;96.70;;;;;;5061825;28;20567;-71
2024/03/18 08:59:57;;;;;;;29.73;14.00;;;12.70;96.60;;;;;;5048189;28;20120;-72
2024/03/18 09:02:23;;;;;;;31.73;14.75;;;12.70;96.50;;;;;;5055541;28;20043;-71
2024/03/18 09:04:48;;;;;;;30.85;13.88;;;12.80;96.40;;;;;;5049476;28;20025;-72
2024/03/18 09:07:15;;;;;;;26.83;13.95;;;12.80;96.50;;;;;;5055483;28;20530;-71
2024/03/18 09:09:41;;;;;;;26.23;14.05;;;12.80;96.40;;;;;;5063691;28;20127;-71
2024/03/18 09:12:07;;;;;;;31.88;16.00;;;12.80;96.40;;;;;;5053533;28;20433;-71
2024/03/18 09:14:33;;;;;;;26.20;12.48;;;12.80;96.50;;;;;;5054964;28;20032;-72
2024/03/18 09:17:02;;;;;;;26.67;13.23;;;12.80;96.50;;;;;;5067844;28;20498;-72
2024/03/18 09:19:39;;;;;;;35.85;15.55;;;12.80;96.50;;;;;;5069912;28;20040;-71
2024/03/18 09:22:06;;;;;;;26.45;13.80;;;12.80;96.60;;;;;;5055177;28;20075;-71
2024/03/18 09:24:32;;;;;;;38.42;14.23;;;12.70;96.70;;;;;;5057874;28;20452;-71
2024/03/18 09:27:01;;;;;;;29.48;14.18;;;12.80;96.60;;;;;;5066218;28;20024;-71
2024/03/18 09:29:28;;;;;;;29.65;15.32;;;12.80;96.70;;;;;;5069707;28;20067;-71
2024/03/18 09:31:54;;;;;;;37.30;15.65;;;12.80;96.70;;;;;;5052328;28;20036;-71
2024/03/18 09:34:19;;;;;;;28.55;13.45;;;12.80;96.70;;;;;;5068264;28;20032;-72
2024/03/18 09:36:46;;;;;;;30.38;14.85;;;12.80;96.70;;;;;;5056735;28;20043;-75
2024/03/18 09:39:11;;;;;;;34.85;14.85;;;12.80;96.80;;;;;;5064649;28;20093;-71
2024/03/18 09:41:39;;;;;;;19.85;8.95;;;12.80;96.90;;;;;;5061731;28;20056;-71
2024/03/18 09:44:12;;;;;;;31.38;13.27;;;12.80;96.80;;;;;;5059313;28;20028;-71
2024/03/18 09:46:38;;;;;;;33.08;14.18;;;12.90;96.90;;;;;;5049584;28;20033;-71
2024/03/18 09:49:13;;;;;;;33.97;14.70;;;12.80;96.90;;;;;;5049109;28;20446;-71
2024/03/18 09:51:40;;;;;;;30.40;14.15;;;12.90;96.90;;;;;;5048990;28;20032;-71
2024/03/18 09:54:17;;;;;;;33.05;14.73;;;12.90;96.90;;;;;;5059365;28;20375;-71
2024/03/18 09:57:03;;;;;;;36.78;15.07;;;12.90;97.00;;;;;;5058213;28;20105;-71
2024/03/18 09:59:31;;;;;;;30.15;14.75;;;12.80;97.10;;;;;;5054517;28;20115;-71
2024/03/18 10:01:56;;;;;;;28.60;14.45;;;12.90;97.00;;;;;;5055874;28;20123;-71
2024/03/18 10:04:22;;;;;;;34.60;14.02;;;12.90;97.10;;;;;;5059881;28;20083;-71
2024/03/18 10:06:49;;;;;;;30.35;15.40;;;12.90;97.00;;;;;;5048408;28;20033;-71
2024/03/18 10:09:16;;;;;;;35.50;15.25;;;13.00;97.00;;;;;;5053689;28;20032;-71
2024/03/18 10:11:44;;;;;;;30.75;14.95;;;13.00;97.00;;;;;;5057791;28;20040;-71
2024/03/18 10:14:11;;;;;;;34.85;15.35;;;13.00;97.00;;;;;;5059752;28;20041;-71
2024/03/18 10:16:38;;;;;;;30.95;14.38;;;13.10;97.00;;;;;;5056272;28;20480;-71
2024/03/18 10:19:06;;;;;;;35.05;15.02;;;13.00;96.90;;;;;;5060541;28;20079;-71
2024/03/18 10:21:35;;;;;;;35.88;14.65;;;13.10;97.10;;;;;;5053352;28;20048;-72
2024/03/18 10:24:00;;;;;;;37.95;16.50;;;13.10;97.30;;;;;;5068067;28;20055;-71
2024/03/18 10:26:26;;;;;;;40.70;16.25;;;13.10;97.10;;;;;;5065430;28;20506;-70
2024/03/18 10:28:52;;;;;;;30.80;15.63;;;13.10;97.10;;;;;;5048450;28;20035;-70
2024/03/18 10:31:17;;;;;;;38.58;15.32;;;13.10;97.10;;;;;;5047976;28;20029;-71
2024/03/18 10:33:45;;;;;;;31.13;15.38;;;13.20;97.10;;;;;;5067945;28;20115;-71
2024/03/18 10:36:26;;;;;;;33.97;14.40;;;13.20;97.10;;;;;;5053573;28;20078;-71
2024/03/18 10:39:08;;;;;;;30.83;15.35;;;13.20;97.10;;;;;;5048218;28;20045;-71
2024/03/18 10:41:39;;;;;;;35.83;15.43;;;13.20;97.20;;;;;;5065742;28;20048;-70
2024/03/18 10:44:17;;;;;;;23.35;12.52;;;13.30;97.10;;;;;;5054058;28;20411;-71
2024/03/18 10:46:45;;;;;;;34.78;14.77;;;13.30;97.10;;;;;;5056085;28;20490;-71
2024/03/18 10:49:20;;;;;;;27.80;12.15;;;13.40;97.10;;;;;;5064951;28;20055;-70
2024/03/18 10:51:46;;;;;;;31.08;14.30;;;13.40;97.00;;;;;;5048632;28;20457;-70
2024/03/18 10:54:17;;;;;;;30.83;14.57;;;13.40;97.10;;;;;;5061647;28;20032;-71
2024/03/18 10:56:46;;;;;;;32.45;15.18;;;13.40;97.10;;;;;;5057946;28;20106;-72
2024/03/18 10:59:14;;;;;;;31.20;14.98;;;13.40;97.10;;;;;;5052651;28;20487;-71
2024/03/18 11:01:40;;;;;;;32.42;15.18;;;13.40;97.10;;;;;;5064788;28;20051;-70
2024/03/18 11:04:26;;;;;;;27.98;13.98;;;13.50;97.10;;;;;;5067528;28;20108;-72
2024/03/18 11:06:55;;;;;;;38.13;15.45;;;13.50;97.10;;;;;;5051608;28;20040;-70
2024/03/18 11:09:23;;;;;;;25.52;11.73;;;13.50;97.10;;;;;;5055990;28;20044;-71
2024/03/18 11:11:50;;;;;;;31.92;14.38;;;13.50;97.00;;;;;;5059648;28;20112;-70
2024/03/18 11:14:29;;;;;;;31.45;15.63;;;13.70;97.00;;;;;;5059054;28;20043;-69
2024/03/18 11:16:56;;;;;;;31.80;14.15;;;13.60;97.00;;;;;;5056959;28;20041;-70
2024/03/18 11:19:27;;;;;;;33.63;16.45;;;13.60;96.90;;;;;;5051850;28;20033;-69
2024/03/18 11:21:58;;;;;;;30.58;14.63;;;13.70;97.00;;;;;;5051739;28;20052;-69
2024/03/18 11:24:24;;;;;;;27.80;15.35;;;13.70;97.10;;;;;;5051196;28;20116;-69
2024/03/18 11:26:56;;;;;;;32.88;14.50;;;13.70;97.10;;;;;;5052262;28;20164;-69
2024/03/18 11:29:22;;;;;;;34.75;15.38;;;13.60;97.20;;;;;;5062107;28;20036;-70
2024/03/18 11:31:52;;;;;;;33.03;16.13;;;13.70;97.20;;;;;;5056512;28;20035;-69
2024/03/18 11:34:24;;;;;;;22.83;13.05;;;13.70;97.30;;;;;;5061068;28;20024;-71
2024/03/18 11:36:50;;;;;;;28.00;14.32;;;13.70;97.20;;;;;;5063828;28;20033;-70
2024/03/18 11:39:17;;;;;;;25.92;14.70;;;13.70;97.30;;;;;;5065706;28;20082;-70
2024/03/18 11:41:43;;;;;;;32.25;13.93;;;13.70;97.40;;;;;;5060434;28;20044;-70
2024/03/18 11:44:13;;;;;;;30.98;14.60;;;13.80;97.30;;;;;;5056232;28;20082;-70
2024/03/18 11:46:40;;;;;;;28.00;13.38;;;13.80;97.30;;;;;;5061050;28;20488;-70
2024/03/18 11:49:08;;;;;;;29.05;13.65;;;13.80;97.40;;;;;;5058835;28;20036;-70
2024/03/18 11:51:34;;;;;;;25.88;13.68;;;13.90;97.40;;;;;;5051265;28;20036;-70
2024/03/18 11:54:05;;;;;;;24.25;13.18;;;14.00;97.30;;;;;;5059789;28;20039;-70
2024/03/18 11:56:32;;;;;;;27.15;14.50;;;14.00;97.30;;;;;;5063299;28;20062;-70
2024/03/18 11:58:59;;;;;;;26.10;14.27;;;14.00;97.30;;;;;;5058847;28;20059;-72
2024/03/18 12:01:27;;;;;;;29.02;14.73;;;14.00;97.30;;;;;;5063890;28;20132;-69
2024/03/18 12:03:52;;;;;;;31.73;15.82;;;14.10;97.30;;;;;;5049999;28;20036;-69
2024/03/18 12:06:18;;;;;;;25.38;13.38;;;14.10;97.30;;;;;;5062675;28;20032;-68
2024/03/18 12:08:45;;;;;;;27.55;13.55;;;14.10;97.20;;;;;;5052717;28;20040;-69
2024/03/18 12:11:11;;;;;;;32.67;15.50;;;14.10;97.30;;;;;;5063264;28;20029;-70
2024/03/18 12:13:37;;;;;;;26.08;13.82;;;14.20;97.20;;;;;;5049844;28;20053;-70
2024/03/18 12:16:04;;;;;;;26.83;14.43;;;14.30;97.20;;;;;;5059605;28;20037;-69
2024/03/18 12:18:30;;;;;;;26.83;12.63;;;14.30;97.20;;;;;;5054991;28;20086;-69
2024/03/18 12:20:56;;;;;;;42.42;17.33;;;14.30;97.20;;;;;;5052086;28;20037;-69
2024/03/18 12:29:00;;;;;;;39.20;17.50;;;14.40;97.10;;;;;;5060477;28;20036;-69
2024/03/18 12:31:30;;;;;;;37.53;18.20;;;14.40;97.20;;;;;;5054717;28;20452;-69
2024/03/18 12:33:59;;;;;;;36.67;18.08;;;14.30;97.30;;;;;;5053584;28;20075;-69
2024/03/18 12:36:24;;;;;;;37.38;18.50;;;14.40;97.40;;;;;;5062661;28;20097;-69